createdAt,value
2023-02-16T15:45:33.141Z,24.45
2023-02-16T15:48:21.085Z,24.24
2023-02-16T15:50:50.768Z,24.11
2023-02-16T15:53:25.023Z,24.06
2023-02-16T15:55:53.331Z,24.00
2023-02-16T15:58:22.051Z,23.95
2023-02-16T16:00:50.552Z,23.91
2023-02-16T16:03:18.830Z,23.86
2023-02-16T16:06:06.757Z,23.81
2023-02-16T16:08:35.864Z,23.71
2023-02-16T16:11:04.646Z,23.65
2023-02-16T16:13:34.285Z,23.60
2023-02-16T16:16:04.827Z,23.55
2023-02-16T16:18:39.441Z,23.61
2023-02-16T16:21:34.303Z,23.69
2023-02-16T16:24:08.098Z,24.07
2023-02-16T16:26:53.173Z,24.41
2023-02-16T16:29:44.328Z,24.78
2023-02-16T16:32:25.098Z,25.09
2023-02-16T16:34:53.352Z,25.34
2023-02-16T16:37:28.921Z,25.54
2023-02-16T16:40:01.639Z,25.71
2023-02-16T16:42:31.223Z,25.87
2023-02-16T16:45:07.365Z,26.07
2023-02-16T16:47:40.439Z,26.24
2023-02-16T16:50:11.896Z,26.40
2023-02-16T16:52:44.877Z,26.55
2023-02-16T16:55:19.193Z,26.68
2023-02-16T16:57:58.334Z,26.80
2023-02-16T17:00:31.108Z,26.92
2023-02-16T17:02:59.197Z,27.03
2023-02-16T17:05:27.985Z,27.14
2023-02-16T17:07:56.145Z,27.15
2023-02-16T17:10:24.629Z,27.11
2023-02-16T17:12:56.793Z,27.24
2023-02-16T17:15:29.669Z,27.39
2023-02-16T17:17:58.905Z,27.48
2023-02-16T17:20:27.240Z,27.50
2023-02-16T17:22:55.330Z,27.47
2023-02-16T17:25:23.600Z,27.43
2023-02-16T17:27:51.522Z,27.26
2023-02-16T17:30:19.650Z,27.08
2023-02-16T17:32:47.814Z,26.88
2023-02-16T17:35:15.885Z,26.73
2023-02-16T17:37:43.952Z,26.65
2023-02-16T17:40:17.376Z,26.57
2023-02-16T17:42:47.297Z,26.48
2023-02-16T17:45:18.226Z,26.39
2023-02-16T17:47:49.876Z,26.34
2023-02-16T17:50:19.811Z,26.26
2023-02-16T17:52:47.888Z,26.18
2023-02-16T17:55:16.330Z,26.12
2023-02-16T17:57:44.402Z,26.05
2023-02-16T18:00:17.858Z,25.93
2023-02-16T18:02:46.796Z,25.85
2023-02-16T18:05:15.375Z,25.74
2023-02-16T18:07:43.561Z,25.63
2023-02-16T18:10:18.655Z,25.58
2023-02-16T18:12:46.661Z,25.49
2023-02-16T18:15:14.735Z,25.40
2023-02-16T18:17:42.701Z,25.31
2023-02-16T18:20:16.156Z,25.23
2023-02-16T18:22:44.488Z,25.05
2023-02-16T18:25:12.651Z,24.84
2023-02-16T18:27:40.827Z,24.61
2023-02-16T18:30:10.376Z,24.43
2023-02-16T18:32:38.703Z,24.30
2023-02-16T18:35:06.880Z,24.17
2023-02-16T18:37:35.706Z,24.08
2023-02-16T18:40:05.381Z,23.97
2023-02-16T18:42:33.460Z,23.86
2023-02-16T18:45:01.515Z,23.76
2023-02-16T18:47:29.811Z,23.66
2023-02-16T18:49:57.885Z,23.55
2023-02-16T18:52:26.262Z,23.46
2023-02-16T18:54:54.295Z,23.37
2023-02-16T18:57:22.924Z,23.32
2023-02-16T18:59:51.099Z,23.25
2023-02-16T19:02:19.376Z,23.20
2023-02-16T19:04:47.965Z,23.13
2023-02-16T19:07:16.131Z,23.08
2023-02-16T19:09:44.198Z,23.03
2023-02-16T19:12:12.072Z,22.97
2023-02-16T19:14:40.447Z,22.93
2023-02-16T19:17:08.624Z,22.87
2023-02-16T19:19:37.297Z,22.81
2023-02-16T19:22:05.483Z,22.74
2023-02-16T19:24:36.076Z,22.67
2023-02-16T19:27:04.316Z,22.62
2023-02-16T19:29:32.355Z,22.55
2023-02-16T19:32:00.549Z,22.47
2023-02-16T19:34:28.706Z,22.42
2023-02-16T19:36:56.880Z,22.35
2023-02-16T19:39:25.045Z,22.28
2023-02-16T19:41:53.225Z,22.23
2023-02-16T19:44:21.189Z,22.17
2023-02-16T19:46:49.161Z,22.11
2023-02-16T19:49:17.224Z,22.04
2023-02-16T19:51:47.759Z,21.95
2023-02-16T19:54:16.251Z,21.91
2023-02-16T19:56:44.317Z,21.88
2023-02-16T19:59:12.512Z,21.84
2023-02-16T20:01:40.492Z,21.79
2023-02-16T20:04:08.936Z,21.74
2023-02-16T20:06:39.308Z,21.70
2023-02-16T20:09:11.226Z,21.66
2023-02-16T20:11:40.431Z,21.62
2023-02-16T20:14:08.787Z,21.56
2023-02-16T20:16:36.852Z,21.52
2023-02-16T20:19:04.941Z,21.48
2023-02-16T20:21:33.847Z,21.43
2023-02-16T20:24:04.753Z,21.40
2023-02-16T20:26:42.170Z,21.37
2023-02-16T20:29:13.385Z,21.33
2023-02-16T20:31:47.004Z,21.28
2023-02-16T20:34:15.524Z,21.23
2023-02-16T20:36:43.534Z,21.20
2023-02-16T20:39:11.613Z,21.16
2023-02-16T20:41:40.955Z,21.12
2023-02-16T20:44:09.295Z,21.09
2023-02-16T20:46:38.796Z,21.06
2023-02-16T20:49:07.660Z,21.03
2023-02-16T20:51:36.977Z,21.00
2023-02-16T20:54:05.699Z,20.98
2023-02-16T20:56:33.993Z,20.95
2023-02-16T20:59:02.159Z,20.90
2023-02-16T21:01:43.770Z,20.87
2023-02-16T21:04:14.071Z,20.82
2023-02-16T21:06:42.008Z,20.78
2023-02-16T21:09:11.413Z,20.74
2023-02-16T21:11:40.341Z,20.69
2023-02-16T21:14:11.782Z,20.66
2023-02-16T21:16:41.183Z,20.63
2023-02-16T21:19:22.128Z,20.59
2023-02-16T21:21:51.678Z,20.73
2023-02-16T21:24:20.147Z,21.06
2023-02-16T21:26:48.339Z,21.51
2023-02-16T21:29:16.697Z,22.07
2023-02-16T21:31:44.923Z,22.62
2023-02-16T21:34:13.147Z,23.18
2023-02-16T21:36:41.227Z,23.66
2023-02-16T21:39:09.216Z,24.08
2023-02-16T21:41:37.472Z,24.44
2023-02-16T21:44:11.022Z,24.77
2023-02-16T21:46:40.784Z,25.08
2023-02-16T21:49:12.915Z,25.35
2023-02-16T21:51:43.389Z,25.59
2023-02-16T21:54:14.853Z,25.82
2023-02-16T21:56:48.269Z,26.03
2023-02-16T21:59:18.742Z,26.20
2023-02-16T22:01:51.368Z,26.28
2023-02-16T22:04:22.425Z,26.32
2023-02-16T22:06:51.235Z,26.30
2023-02-16T22:09:22.587Z,26.23
2023-02-16T22:11:51.735Z,26.13
2023-02-16T22:14:20.228Z,26.01
2023-02-16T22:16:48.849Z,25.87
2023-02-16T22:19:18.526Z,25.70
2023-02-16T22:21:48.613Z,25.53
2023-02-16T22:24:18.241Z,25.36
2023-02-16T22:26:49.572Z,25.18
2023-02-16T22:29:18.392Z,25.03
2023-02-16T22:31:48.566Z,24.87
2023-02-16T22:34:19.584Z,24.73
2023-02-16T22:36:48.492Z,24.59
2023-02-16T22:39:18.782Z,24.44
2023-02-16T22:41:49.223Z,24.31
2023-02-16T22:44:17.626Z,24.18
2023-02-16T22:46:45.594Z,24.05
2023-02-16T22:49:13.666Z,23.95
2023-02-16T22:51:42.046Z,23.85
2023-02-16T22:54:14.435Z,23.72
2023-02-16T22:56:42.811Z,23.60
2023-02-16T22:59:12.068Z,23.52
2023-02-16T23:01:40.813Z,23.44
2023-02-16T23:04:14.051Z,23.35
2023-02-16T23:06:47.127Z,23.28
2023-02-16T23:09:18.740Z,23.22
2023-02-16T23:11:48.039Z,23.18
2023-02-16T23:14:17.739Z,23.15
2023-02-16T23:16:48.448Z,23.09
2023-02-16T23:19:20.300Z,23.02
2023-02-16T23:21:49.099Z,22.94
2023-02-16T23:24:20.786Z,22.87
2023-02-16T23:26:49.436Z,22.78
2023-02-16T23:29:17.937Z,22.69
2023-02-16T23:31:47.227Z,22.59
2023-02-16T23:34:16.638Z,22.52
2023-02-16T23:36:45.050Z,22.43
2023-02-16T23:39:15.882Z,22.33
2023-02-16T23:41:44.060Z,22.29
2023-02-16T23:44:14.313Z,22.21
2023-02-16T23:46:42.438Z,22.14
2023-02-16T23:49:10.603Z,22.07
2023-02-16T23:51:38.784Z,21.95
2023-02-16T23:54:09.301Z,21.89
2023-02-16T23:56:37.390Z,21.81
2023-02-16T23:59:05.256Z,21.74
